TAF and METAR

Decoding for American and Canadian METARs and TAFs is not fully implemented.

Could not understand the following METAR

KFRM 191456Z AUTO 19008KT 10SM CLR 02/M02 A3024 RMK AO2 SLP256 T00221022 58003 FZRANO
No TAF available for Fairmont Municipal Airport
Fairmont Municipal Airport in United States of America at 354m

Latest 5 airports